Time;durP1;ratioP1;P1;durP2;ratioP2;P2;SDS_P1;SDS_P2;PMS_P1;PMS_P2;Temp;Humidity;BMP_temperature;BMP_pressure;BME280_temperature;BME280_humidity;BME280_pressure;Samples;Min_cycle;Max_cycle;Signal;HPM_P1;HPM_P2
2022/09/10 00:00:42;;;;;;;9.57;4.85;;;19.30;69.70;;;;;;5107866;27;20011;-68
2022/09/10 00:03:09;;;;;;;7.13;5.10;;;19.30;69.90;;;;;;5123939;27;20035;-68
2022/09/10 00:05:43;;;;;;;8.68;5.55;;;19.30;70.00;;;;;;5125113;27;20164;-68
2022/09/10 00:08:10;;;;;;;6.63;3.88;;;19.30;70.10;;;;;;5124807;27;20076;-68
2022/09/10 00:10:40;;;;;;;7.82;3.60;;;19.40;70.20;;;;;;5122825;27;20104;-68
2022/09/10 00:13:07;;;;;;;5.53;3.90;;;19.40;70.20;;;;;;5105848;27;20499;-68
2022/09/10 00:15:38;;;;;;;8.07;4.93;;;19.40;70.10;;;;;;5123583;27;20497;-68
2022/09/10 00:18:04;;;;;;;6.50;5.20;;;19.50;70.10;;;;;;5123656;27;20019;-68
2022/09/10 00:20:31;;;;;;;5.63;4.63;;;19.50;70.00;;;;;;5123019;27;20358;-69
2022/09/10 00:22:57;;;;;;;7.63;4.20;;;19.50;69.80;;;;;;5104948;27;20096;-68
2022/09/10 00:25:22;;;;;;;6.10;4.70;;;19.60;69.80;;;;;;5123949;27;20077;-68
2022/09/10 00:27:48;;;;;;;14.30;6.25;;;19.60;69.80;;;;;;5123221;27;20019;-68
2022/09/10 00:30:14;;;;;;;5.97;4.75;;;19.60;69.80;;;;;;5124512;27;20015;-68
2022/09/10 00:32:39;;;;;;;7.13;4.90;;;19.60;69.70;;;;;;5122458;27;20401;-68
2022/09/10 00:35:06;;;;;;;7.72;5.15;;;19.70;69.70;;;;;;5123564;27;20103;-68
2022/09/10 00:37:32;;;;;;;9.30;5.35;;;19.70;69.50;;;;;;5122610;27;20026;-68
2022/09/10 00:39:58;;;;;;;8.32;5.75;;;19.70;69.50;;;;;;5122497;27;20015;-68
2022/09/10 00:42:24;;;;;;;9.48;5.70;;;19.70;69.40;;;;;;5123739;27;20517;-68
2022/09/10 00:45:01;;;;;;;15.15;7.10;;;19.70;69.30;;;;;;5124141;27;20031;-68
2022/09/10 00:47:37;;;;;;;13.75;7.15;;;19.70;69.20;;;;;;5123622;27;20054;-68
2022/09/10 00:50:16;;;;;;;11.43;6.30;;;19.70;69.00;;;;;;5122922;27;20038;-68
2022/09/10 00:52:42;;;;;;;12.25;6.05;;;19.60;68.90;;;;;;5121466;27;20485;-68
2022/09/10 00:55:11;;;;;;;10.25;5.82;;;19.60;69.70;;;;;;5123583;27;20019;-68
2022/09/10 00:57:37;;;;;;;13.70;5.72;;;19.50;68.90;;;;;;5100776;28;20020;-68
2022/09/10 01:00:12;;;;;;;10.38;6.47;;;19.50;69.10;;;;;;5114040;28;20027;-68
2022/09/10 01:02:38;;;;;;;10.30;5.45;;;19.40;69.20;;;;;;5113940;28;20058;-68
2022/09/10 01:05:07;;;;;;;8.85;6.10;;;19.40;69.30;;;;;;5113902;28;20020;-68
2022/09/10 01:07:35;;;;;;;10.30;6.55;;;19.30;69.40;;;;;;5113757;28;20028;-69
2022/09/10 01:10:07;;;;;;;15.05;6.10;;;19.20;69.60;;;;;;5113795;28;20044;-67
2022/09/10 01:13:01;;;;;;;10.98;5.95;;;19.20;69.70;;;;;;5113800;28;20479;-68
2022/09/10 01:15:39;;;;;;;25.48;7.13;;;19.10;69.80;;;;;;5023312;28;20497;-68
2022/09/10 01:18:38;;;;;;;20.10;6.05;;;19.10;70.00;;;;;;5113781;28;20086;-68
2022/09/10 01:21:08;;;;;;;17.50;7.15;;;19.00;70.00;;;;;;5113723;28;20016;-68
2022/09/10 01:23:58;;;;;;;18.65;6.75;;;18.90;70.00;;;;;;5095191;28;20020;-68
2022/09/10 01:26:58;;;;;;;22.50;7.38;;;18.90;70.20;;;;;;5113074;28;20020;-68
2022/09/10 01:29:32;;;;;;;8.88;5.88;;;18.80;70.30;;;;;;5113400;28;20030;-68
2022/09/10 01:32:13;;;;;;;10.52;6.72;;;18.80;70.40;;;;;;5113146;28;20459;-68
2022/09/10 01:35:06;;;;;;;8.13;5.28;;;18.70;70.80;;;;;;5113398;28;20488;-68
2022/09/10 01:37:34;;;;;;;7.28;4.97;;;18.70;70.80;;;;;;5113341;28;20327;-68
2022/09/10 01:40:03;;;;;;;12.60;5.47;;;18.70;70.70;;;;;;5113241;28;20561;-68
2022/09/10 01:42:29;;;;;;;8.95;6.32;;;18.70;70.90;;;;;;5113179;28;20020;-68
2022/09/10 01:44:56;;;;;;;12.27;6.93;;;18.70;71.10;;;;;;5113076;28;20051;-68
2022/09/10 01:47:37;;;;;;;9.50;7.18;;;18.60;71.30;;;;;;5113092;28;20027;-68
2022/09/10 01:50:25;;;;;;;16.17;7.55;;;18.60;71.50;;;;;;5113128;28;20129;-68
2022/09/10 01:53:32;;;;;;;23.00;6.53;;;18.60;71.60;;;;;;5113045;28;20026;-68
2022/09/10 01:56:25;;;;;;;21.23;7.65;;;18.60;71.60;;;;;;5112507;28;20023;-68
2022/09/10 01:58:56;;;;;;;12.85;6.95;;;18.60;71.80;;;;;;5113017;28;20035;-68
2022/09/10 02:01:31;;;;;;;14.23;7.35;;;18.60;71.70;;;;;;5112984;28;20382;-68
2022/09/10 02:04:01;;;;;;;8.27;7.03;;;18.60;71.70;;;;;;5112930;28;20046;-68
2022/09/10 02:06:31;;;;;;;15.50;7.50;;;18.60;71.50;;;;;;5094578;28;20106;-68
2022/09/10 02:08:59;;;;;;;19.35;9.07;;;18.60;71.50;;;;;;5094624;28;20110;-68
2022/09/10 02:11:25;;;;;;;21.33;10.15;;;18.60;71.50;;;;;;5113381;28;20039;-68
2022/09/10 02:13:52;;;;;;;28.88;9.93;;;18.50;71.70;;;;;;5112843;28;20483;-68
2022/09/10 02:16:32;;;;;;;18.85;9.55;;;18.50;71.80;;;;;;5094486;28;20035;-68
2022/09/10 02:18:59;;;;;;;13.23;8.73;;;18.50;72.70;;;;;;5112802;28;20027;-68
2022/09/10 02:21:25;;;;;;;11.95;7.22;;;18.50;72.10;;;;;;5112718;28;20027;-68
2022/09/10 02:23:58;;;;;;;10.90;8.40;;;18.50;72.20;;;;;;5094298;28;20051;-68
2022/09/10 02:26:24;;;;;;;13.15;9.80;;;18.50;72.40;;;;;;5112682;28;20428;-68
2022/09/10 02:28:51;;;;;;;10.57;9.02;;;18.60;72.60;;;;;;5112684;28;20020;-68
2022/09/10 02:31:17;;;;;;;9.40;8.30;;;18.60;72.50;;;;;;5112542;28;20116;-68
2022/09/10 02:33:43;;;;;;;12.93;8.98;;;18.60;72.30;;;;;;5112470;28;20058;-68
2022/09/10 02:36:09;;;;;;;9.45;8.07;;;18.70;72.30;;;;;;5112638;28;20030;-68
2022/09/10 02:38:35;;;;;;;9.70;8.52;;;18.70;72.10;;;;;;5114793;28;20449;-68
2022/09/10 02:41:01;;;;;;;11.77;9.38;;;18.70;72.00;;;;;;5116745;28;20436;-68
2022/09/10 02:43:27;;;;;;;11.85;10.05;;;18.80;71.90;;;;;;5116636;28;20019;-68
2022/09/10 02:45:58;;;;;;;14.15;10.75;;;18.80;71.80;;;;;;5116519;28;20023;-68
2022/09/10 02:48:25;;;;;;;12.60;10.68;;;18.80;71.50;;;;;;5116853;28;20115;-68
2022/09/10 02:50:53;;;;;;;14.57;10.65;;;18.90;71.50;;;;;;5116524;28;20039;-68
2022/09/10 02:53:19;;;;;;;12.82;10.20;;;18.90;71.30;;;;;;5098008;28;20092;-68
2022/09/10 02:55:46;;;;;;;12.98;9.65;;;18.90;71.20;;;;;;5116369;28;20526;-68
2022/09/10 02:58:12;;;;;;;15.27;10.32;;;18.90;71.00;;;;;;5116356;28;20023;-68
2022/09/10 03:00:39;;;;;;;15.57;9.07;;;18.90;70.70;;;;;;5116270;28;20096;-68
2022/09/10 03:03:05;;;;;;;14.35;10.98;;;19.00;70.70;;;;;;5116576;28;20105;-67
2022/09/10 03:05:31;;;;;;;11.45;9.25;;;19.00;70.60;;;;;;5116144;28;20382;-68
2022/09/10 03:07:59;;;;;;;10.38;8.75;;;19.00;70.60;;;;;;5116197;28;20475;-68
2022/09/10 03:10:25;;;;;;;12.02;9.75;;;19.00;70.50;;;;;;5097881;28;20020;-67
2022/09/10 03:12:51;;;;;;;13.05;9.98;;;19.10;70.50;;;;;;5116092;28;20015;-68
2022/09/10 03:15:19;;;;;;;12.68;9.95;;;19.10;70.30;;;;;;5115990;28;20023;-67
2022/09/10 03:17:45;;;;;;;13.95;9.68;;;19.00;70.20;;;;;;5116100;28;20019;-68
2022/09/10 03:20:11;;;;;;;12.07;9.57;;;19.10;70.20;;;;;;5097613;28;20088;-68
2022/09/10 03:22:37;;;;;;;15.82;11.35;;;19.10;70.00;;;;;;5097486;28;20076;-69
2022/09/10 03:25:04;;;;;;;15.50;11.05;;;19.10;69.90;;;;;;5116054;28;20506;-68
2022/09/10 03:27:29;;;;;;;16.27;11.77;;;19.10;69.70;;;;;;5115615;28;20035;-69
2022/09/10 03:29:55;;;;;;;16.70;12.48;;;19.00;69.30;;;;;;5115689;28;20024;-68
2022/09/10 03:32:21;;;;;;;15.95;12.35;;;19.00;69.20;;;;;;5115420;28;20086;-68
2022/09/10 03:34:48;;;;;;;15.80;11.73;;;18.90;69.20;;;;;;5115564;28;20386;-69
2022/09/10 03:37:14;;;;;;;15.65;11.70;;;18.80;69.20;;;;;;5115608;28;20482;-68
2022/09/10 03:39:40;;;;;;;16.73;10.32;;;18.80;69.20;;;;;;5115485;28;20134;-67
2022/09/10 03:42:06;;;;;;;18.10;11.00;;;18.70;69.10;;;;;;5115480;28;20027;-68
2022/09/10 03:44:32;;;;;;;14.93;11.30;;;18.60;69.30;;;;;;5115635;28;20024;-68
2022/09/10 03:46:59;;;;;;;13.45;10.20;;;18.50;69.50;;;;;;5097181;28;20463;-68
2022/09/10 03:49:25;;;;;;;14.45;11.07;;;18.50;69.80;;;;;;5115207;28;20069;-68
2022/09/10 03:51:52;;;;;;;14.00;10.07;;;18.40;69.80;;;;;;5115483;28;20497;-68
2022/09/10 03:54:18;;;;;;;16.50;11.50;;;18.40;69.80;;;;;;5133269;27;20027;-68
2022/09/10 03:56:44;;;;;;;16.55;12.57;;;18.30;69.90;;;;;;5136109;27;20023;-68
2022/09/10 03:59:13;;;;;;;16.80;12.50;;;18.30;69.90;;;;;;5135979;27;20023;-68
2022/09/10 04:01:40;;;;;;;15.27;11.40;;;18.20;69.90;;;;;;5135992;27;20035;-67
2022/09/10 04:04:07;;;;;;;16.38;12.00;;;18.20;70.00;;;;;;5117518;27;20080;-68
2022/09/10 04:06:34;;;;;;;15.50;11.57;;;18.10;70.10;;;;;;5135856;27;20030;-68
2022/09/10 04:09:00;;;;;;;15.93;12.25;;;18.00;70.20;;;;;;5135904;27;20031;-68
2022/09/10 04:11:27;;;;;;;13.73;10.82;;;18.00;70.40;;;;;;5135724;27;20379;-68
2022/09/10 04:13:54;;;;;;;17.63;12.80;;;17.90;70.50;;;;;;5135783;27;20034;-68
2022/09/10 04:16:22;;;;;;;16.25;11.50;;;17.90;70.60;;;;;;5135648;27;20072;-68
2022/09/10 04:18:48;;;;;;;15.50;11.27;;;17.80;70.80;;;;;;5134832;27;20549;-68
2022/09/10 04:21:14;;;;;;;13.38;10.52;;;17.80;70.90;;;;;;5115064;28;20023;-68
2022/09/10 04:23:40;;;;;;;16.58;12.30;;;17.70;70.90;;;;;;5114852;28;20027;-68
2022/09/10 04:26:18;;;;;;;17.25;10.82;;;17.70;70.90;;;;;;5114738;28;20028;-68
2022/09/10 04:28:43;;;;;;;13.43;9.70;;;17.60;70.90;;;;;;5114898;28;20023;-67
2022/09/10 04:31:10;;;;;;;17.60;10.40;;;17.60;70.90;;;;;;5114723;28;20024;-68
2022/09/10 04:33:36;;;;;;;12.60;9.35;;;17.50;70.90;;;;;;5114660;28;20517;-68
2022/09/10 04:36:03;;;;;;;13.60;9.32;;;17.50;70.90;;;;;;5114783;28;20028;-68
2022/09/10 04:38:30;;;;;;;13.15;9.52;;;17.50;70.90;;;;;;5114651;28;20080;-68
2022/09/10 04:40:58;;;;;;;13.80;9.93;;;17.40;70.90;;;;;;5114647;28;20305;-68
2022/09/10 04:43:27;;;;;;;19.58;9.93;;;17.40;71.00;;;;;;5114528;28;20107;-67
2022/09/10 04:45:54;;;;;;;11.80;8.73;;;17.30;70.90;;;;;;5114399;28;20082;-68
2022/09/10 04:48:21;;;;;;;11.10;8.95;;;17.30;71.00;;;;;;5114516;28;20026;-68
2022/09/10 04:50:47;;;;;;;16.67;10.32;;;17.30;71.00;;;;;;5114420;28;20011;-69
2022/09/10 04:53:14;;;;;;;13.88;9.07;;;17.20;71.10;;;;;;5114242;28;20065;-68
2022/09/10 04:55:42;;;;;;;11.07;8.60;;;17.20;71.20;;;;;;5114297;28;20008;-68
2022/09/10 04:58:08;;;;;;;10.40;7.50;;;17.20;71.30;;;;;;5114272;28;20069;-67
2022/09/10 05:00:34;;;;;;;12.80;9.27;;;17.10;71.30;;;;;;5113537;28;20039;-68
2022/09/10 05:03:00;;;;;;;12.70;8.95;;;17.10;71.40;;;;;;5114154;28;20051;-68
2022/09/10 05:05:27;;;;;;;11.65;8.65;;;17.10;71.60;;;;;;5114076;28;20467;-69
2022/09/10 05:07:53;;;;;;;13.35;10.18;;;17.10;71.90;;;;;;5114179;28;20016;-68
2022/09/10 05:10:19;;;;;;;17.23;10.25;;;17.00;72.20;;;;;;5114056;28;20031;-68
2022/09/10 05:12:45;;;;;;;12.90;9.68;;;17.00;72.50;;;;;;5113987;28;20023;-68
2022/09/10 05:15:10;;;;;;;12.35;9.38;;;17.00;72.60;;;;;;5113919;28;20024;-68
2022/09/10 05:17:36;;;;;;;11.02;8.60;;;17.10;72.80;;;;;;5113813;28;20023;-68
2022/09/10 05:20:05;;;;;;;9.15;7.45;;;17.10;72.80;;;;;;5095549;28;20505;-68
2022/09/10 05:22:30;;;;;;;11.82;8.50;;;17.10;72.80;;;;;;5113474;28;20031;-68
2022/09/10 05:24:56;;;;;;;11.57;7.82;;;17.10;72.80;;;;;;5113626;28;20031;-68
2022/09/10 05:27:22;;;;;;;9.30;7.40;;;17.10;72.90;;;;;;5113450;28;20027;-68
2022/09/10 05:29:47;;;;;;;9.57;6.05;;;17.10;72.90;;;;;;5113391;28;20023;-68
2022/09/10 05:32:13;;;;;;;9.13;6.55;;;17.20;72.90;;;;;;5112160;27;20461;-68
2022/09/10 05:34:40;;;;;;;9.43;6.50;;;17.20;72.80;;;;;;5094248;28;20028;-68
2022/09/10 05:37:07;;;;;;;8.25;6.28;;;17.20;72.70;;;;;;5112365;28;20024;-68
2022/09/10 05:39:33;;;;;;;7.80;6.22;;;17.30;72.70;;;;;;5112368;28;20031;-67
2022/09/10 05:42:01;;;;;;;8.95;6.63;;;17.30;72.60;;;;;;5112355;28;20359;-68
2022/09/10 05:44:26;;;;;;;9.90;6.90;;;17.40;72.60;;;;;;5112314;28;20020;-68
2022/09/10 05:46:52;;;;;;;9.63;7.15;;;17.40;72.70;;;;;;5112262;28;20032;-68
2022/09/10 05:49:18;;;;;;;10.10;6.70;;;17.50;72.90;;;;;;5112551;28;20102;-68
2022/09/10 05:51:43;;;;;;;8.40;6.60;;;17.50;72.80;;;;;;5119607;27;20537;-68
2022/09/10 05:54:10;;;;;;;8.63;6.75;;;17.60;72.60;;;;;;5120409;27;20090;-68
2022/09/10 05:56:36;;;;;;;10.23;6.75;;;17.70;72.30;;;;;;5123039;27;20073;-68
2022/09/10 05:59:03;;;;;;;6.68;5.78;;;17.70;71.90;;;;;;5122034;27;20514;-68
2022/09/10 06:01:30;;;;;;;8.55;6.53;;;17.80;71.70;;;;;;5121134;27;20058;-68
2022/09/10 06:03:57;;;;;;;9.23;6.18;;;17.90;71.40;;;;;;5121214;27;20019;-68
2022/09/10 06:06:27;;;;;;;6.70;5.07;;;17.90;70.80;;;;;;5121953;27;20022;-69
2022/09/10 06:08:54;;;;;;;7.78;5.28;;;17.90;70.60;;;;;;5104669;28;20014;-69
2022/09/10 06:11:20;;;;;;;8.68;5.78;;;17.90;70.40;;;;;;5103151;27;20031;-67
2022/09/10 06:13:46;;;;;;;9.68;6.82;;;17.90;70.30;;;;;;5121305;27;20378;-68
2022/09/10 06:16:12;;;;;;;9.82;6.65;;;17.90;70.40;;;;;;5119814;27;20110;-68
2022/09/10 06:18:38;;;;;;;7.80;5.75;;;18.00;70.60;;;;;;5121589;28;20423;-68
2022/09/10 06:21:11;;;;;;;10.73;6.55;;;18.00;70.50;;;;;;5129552;28;20019;-68
2022/09/10 06:23:38;;;;;;;11.05;5.68;;;18.00;70.10;;;;;;5131081;28;20098;-68
2022/09/10 06:26:12;;;;;;;8.40;6.00;;;18.00;70.20;;;;;;5131877;28;20023;-68
2022/09/10 06:28:39;;;;;;;10.18;5.65;;;18.10;70.30;;;;;;5133466;28;20094;-69
2022/09/10 06:31:06;;;;;;;10.77;5.50;;;18.10;70.50;;;;;;5133447;28;20436;-68
2022/09/10 06:33:32;;;;;;;11.10;6.13;;;18.20;70.50;;;;;;5133194;28;20122;-68
2022/09/10 06:36:00;;;;;;;5.95;5.03;;;18.20;70.30;;;;;;5133371;28;20390;-68
2022/09/10 06:38:32;;;;;;;8.65;5.43;;;18.30;70.50;;;;;;5133310;28;20023;-68
2022/09/10 06:41:01;;;;;;;15.75;6.53;;;18.30;70.50;;;;;;5133292;28;20023;-68
2022/09/10 06:43:30;;;;;;;8.07;5.80;;;18.50;70.60;;;;;;5133426;28;20019;-68
2022/09/10 06:45:56;;;;;;;6.70;5.35;;;18.60;70.50;;;;;;5133127;28;20486;-68
2022/09/10 06:48:26;;;;;;;8.07;6.07;;;18.70;70.40;;;;;;5133334;28;20098;-68
2022/09/10 06:50:57;;;;;;;10.38;5.45;;;18.90;69.90;;;;;;5133327;28;20469;-68
2022/09/10 06:53:26;;;;;;;6.03;5.07;;;19.10;70.00;;;;;;5124628;28;20024;-67
2022/09/10 06:55:52;;;;;;;7.22;5.05;;;19.20;69.50;;;;;;5112672;28;20390;-68
2022/09/10 06:58:19;;;;;;;16.35;6.00;;;19.40;68.60;;;;;;5094427;28;20019;-68
2022/09/10 07:00:46;;;;;;;9.10;5.00;;;19.60;68.20;;;;;;5112573;28;20020;-67
2022/09/10 07:03:17;;;;;;;5.70;4.55;;;19.70;67.60;;;;;;5112610;28;20016;-68
2022/09/10 07:05:44;;;;;;;6.15;4.80;;;19.80;66.80;;;;;;5112461;28;20016;-68
2022/09/10 07:08:13;;;;;;;7.03;5.18;;;20.00;66.50;;;;;;5112624;28;20499;-68
2022/09/10 07:10:40;;;;;;;9.25;5.30;;;20.10;65.80;;;;;;5094394;28;20016;-68
2022/09/10 07:13:06;;;;;;;5.45;4.95;;;20.20;65.80;;;;;;5112515;28;20471;-68
2022/09/10 07:15:32;;;;;;;7.38;5.13;;;20.30;65.30;;;;;;5112606;28;20114;-69
2022/09/10 07:17:59;;;;;;;7.28;5.78;;;20.40;65.40;;;;;;5115329;28;20032;-69
2022/09/10 07:20:28;;;;;;;6.22;4.65;;;20.50;65.20;;;;;;5122602;28;20544;-69
2022/09/10 07:22:57;;;;;;;8.85;4.95;;;20.60;65.70;;;;;;5129666;28;20035;-68
2022/09/10 07:25:25;;;;;;;5.20;4.55;;;20.70;64.10;;;;;;5117802;27;20390;-68
2022/09/10 07:27:51;;;;;;;5.63;4.47;;;20.80;63.90;;;;;;5115922;28;20031;-69
2022/09/10 07:30:18;;;;;;;4.18;3.75;;;21.00;63.40;;;;;;5115999;28;20011;-68
2022/09/10 07:32:45;;;;;;;5.57;4.13;;;21.10;63.70;;;;;;5115665;28;20039;-68
2022/09/10 07:35:11;;;;;;;6.85;5.28;;;21.20;63.60;;;;;;5115537;28;20015;-69
2022/09/10 07:37:38;;;;;;;7.22;5.25;;;21.40;62.90;;;;;;5115897;28;20020;-68
2022/09/10 07:40:05;;;;;;;6.97;5.45;;;21.60;62.90;;;;;;5115914;28;20024;-68
2022/09/10 07:42:31;;;;;;;8.70;5.03;;;21.70;61.90;;;;;;5115750;28;20030;-68
2022/09/10 07:44:57;;;;;;;8.85;6.75;;;21.80;61.10;;;;;;5115765;28;20020;-68
2022/09/10 07:47:24;;;;;;;7.13;5.47;;;21.90;60.80;;;;;;5115640;28;20579;-68
2022/09/10 07:49:51;;;;;;;8.32;4.68;;;21.90;60.00;;;;;;5115687;28;20019;-69
2022/09/10 07:52:17;;;;;;;5.53;3.95;;;22.00;60.10;;;;;;5115569;28;20049;-68
2022/09/10 07:54:43;;;;;;;8.27;3.78;;;22.00;59.50;;;;;;5115331;28;20016;-68
2022/09/10 07:57:09;;;;;;;5.15;3.72;;;22.00;59.20;;;;;;5115497;28;20021;-69
2022/09/10 07:59:34;;;;;;;5.38;3.33;;;22.10;58.90;;;;;;5115428;28;20024;-69
2022/09/10 08:02:00;;;;;;;4.63;2.90;;;22.10;57.50;;;;;;5115395;28;20027;-67
2022/09/10 08:04:30;;;;;;;5.15;3.15;;;22.10;57.80;;;;;;5115422;28;20026;-67
2022/09/10 08:06:56;;;;;;;5.25;3.10;;;22.10;58.10;;;;;;5096924;28;20030;-67
2022/09/10 08:09:21;;;;;;;5.57;3.33;;;22.10;58.30;;;;;;5115367;28;20478;-67
2022/09/10 08:11:47;;;;;;;3.33;2.20;;;22.10;57.60;;;;;;5096991;28;20019;-67
2022/09/10 08:14:13;;;;;;;3.60;2.20;;;22.20;57.60;;;;;;5115107;28;20020;-68
2022/09/10 08:16:39;;;;;;;2.30;1.80;;;22.20;57.50;;;;;;5115189;28;20020;-69
2022/09/10 08:19:05;;;;;;;3.63;2.08;;;22.20;57.60;;;;;;5115132;28;20098;-67
2022/09/10 08:21:31;;;;;;;3.17;2.03;;;22.30;56.80;;;;;;5114981;28;20023;-68
2022/09/10 08:23:57;;;;;;;2.00;1.52;;;22.40;56.80;;;;;;5114829;28;20035;-67
2022/09/10 08:26:26;;;;;;;1.98;1.25;;;22.40;56.60;;;;;;5114834;27;20491;-68
2022/09/10 08:28:56;;;;;;;2.70;1.48;;;22.40;57.00;;;;;;5114987;28;20043;-68
2022/09/10 08:31:25;;;;;;;2.40;1.40;;;22.50;56.90;;;;;;5114838;28;20012;-68
2022/09/10 08:33:53;;;;;;;3.42;1.13;;;22.50;56.90;;;;;;5114712;28;20402;-68
2022/09/10 08:36:20;;;;;;;3.05;1.20;;;22.60;55.80;;;;;;5113522;28;20080;-68
2022/09/10 08:38:47;;;;;;;2.80;1.63;;;22.70;55.40;;;;;;5114634;28;20027;-68
2022/09/10 08:41:37;;;;;;;3.03;1.55;;;22.70;55.10;;;;;;5114686;28;20103;-68
2022/09/10 08:44:09;;;;;;;2.38;1.63;;;22.70;55.50;;;;;;5114578;28;20092;-68
2022/09/10 08:46:42;;;;;;;4.35;1.60;;;22.80;54.80;;;;;;5114364;28;20027;-68
2022/09/10 08:49:15;;;;;;;3.05;1.40;;;22.90;54.90;;;;;;5114529;28;20475;-68
2022/09/10 08:51:54;;;;;;;2.85;1.20;;;22.90;54.90;;;;;;5114367;28;20135;-68
2022/09/10 08:54:26;;;;;;;1.70;1.13;;;22.90;54.80;;;;;;5114234;28;20136;-68
2022/09/10 08:56:55;;;;;;;2.60;1.45;;;23.00;54.50;;;;;;5114388;28;20054;-68
2022/09/10 08:59:36;;;;;;;1.40;1.20;;;23.00;54.30;;;;;;5114323;28;20114;-68
2022/09/10 09:02:21;;;;;;;3.38;1.50;;;23.00;53.30;;;;;;5114285;28;20018;-69
2022/09/10 09:04:56;;;;;;;1.67;1.50;;;23.10;53.90;;;;;;5114169;28;20069;-68
2022/09/10 09:07:22;;;;;;;2.85;1.65;;;23.10;53.40;;;;;;5114173;28;20417;-68
2022/09/10 09:09:52;;;;;;;5.18;2.17;;;23.20;53.90;;;;;;5114069;28;20046;-68
2022/09/10 09:12:27;;;;;;;3.30;1.65;;;23.40;54.10;;;;;;5114035;28;20016;-67
2022/09/10 09:15:00;;;;;;;1.63;1.10;;;23.50;52.90;;;;;;5114048;28;20471;-68
2022/09/10 09:17:55;;;;;;;5.00;1.55;;;23.70;52.40;;;;;;5113999;28;20024;-68
2022/09/10 09:20:47;;;;;;;2.92;1.00;;;23.80;51.90;;;;;;5113912;28;20387;-68
2022/09/10 09:23:22;;;;;;;1.90;0.88;;;23.70;50.60;;;;;;5113770;28;20023;-68
2022/09/10 09:26:18;;;;;;;1.33;1.00;;;23.70;50.60;;;;;;5113663;28;20028;-68
2022/09/10 09:28:59;;;;;;;2.65;0.80;;;23.70;51.10;;;;;;5030871;28;20033;-68
2022/09/10 09:31:31;;;;;;;2.63;1.00;;;23.70;51.00;;;;;;5030849;28;20040;-68
2022/09/10 09:34:06;;;;;;;1.85;0.80;;;23.60;51.10;;;;;;5030797;28;20049;-68
2022/09/10 09:36:56;;;;;;;2.67;1.15;;;23.60;51.20;;;;;;5030849;28;20084;-67
2022/09/10 09:39:29;;;;;;;2.08;0.63;;;23.60;51.40;;;;;;5030540;28;20045;-68
2022/09/10 09:42:13;;;;;;;1.60;0.90;;;23.50;50.50;;;;;;5030991;28;20108;-68
2022/09/10 09:44:54;;;;;;;1.13;0.77;;;23.40;51.10;;;;;;5030851;28;20033;-68
2022/09/10 09:47:20;;;;;;;2.15;0.60;;;23.20;51.40;;;;;;5030425;28;20036;-68
2022/09/10 09:49:45;;;;;;;1.42;0.80;;;23.20;50.90;;;;;;5030805;28;20061;-68
2022/09/10 09:52:22;;;;;;;3.83;0.70;;;23.10;51.70;;;;;;5030704;28;20030;-67
2022/09/10 09:54:56;;;;;;;1.40;0.70;;;23.10;52.20;;;;;;5031022;28;20048;-68
2022/09/10 09:57:22;;;;;;;;;;;23.10;51.10;;;;;;5031068;28;20056;-67
2022/09/10 09:59:50;;;;;;;1.75;0.52;;;23.10;52.90;;;;;;5030634;28;20303;-68
2022/09/10 10:02:17;;;;;;;2.25;0.70;;;23.20;51.50;;;;;;5030566;28;20056;-67
2022/09/10 10:05:14;;;;;;;0.70;0.60;;;23.20;51.10;;;;;;5052028;28;20129;-68
2022/09/10 10:07:39;;;;;;;1.65;0.60;;;23.30;51.50;;;;;;5092814;28;20024;-68
2022/09/10 10:10:06;;;;;;;1.90;0.63;;;23.50;51.60;;;;;;5092922;28;20396;-68
2022/09/10 10:12:33;;;;;;;1.45;0.70;;;23.60;50.60;;;;;;5092613;28;20047;-68
2022/09/10 10:15:01;;;;;;;1.35;0.60;;;23.70;50.10;;;;;;5092706;28;20031;-68
2022/09/10 10:17:36;;;;;;;2.60;0.60;;;23.70;50.00;;;;;;5092717;28;20661;-68
2022/09/10 10:20:07;;;;;;;1.30;0.68;;;23.80;49.30;;;;;;5092732;28;20028;-68
2022/09/10 10:22:34;;;;;;;1.17;0.70;;;23.70;48.90;;;;;;5092710;28;20157;-68
2022/09/10 10:25:03;;;;;;;2.80;0.93;;;23.70;48.40;;;;;;5091179;28;20043;-68
2022/09/10 10:27:31;;;;;;;2.47;0.60;;;23.60;48.60;;;;;;5092570;28;20021;-68
2022/09/10 10:30:00;;;;;;;1.20;0.60;;;23.60;49.50;;;;;;5092564;28;20070;-68
2022/09/10 10:32:54;;;;;;;1.85;0.60;;;23.50;49.40;;;;;;5099696;28;20170;-68
2022/09/10 10:35:21;;;;;;;;;;;23.40;50.20;;;;;;5092076;28;20032;-68
2022/09/10 10:38:15;;;;;;;1.60;0.60;;;23.40;51.20;;;;;;5112548;28;19903;-68
2022/09/10 10:40:48;;;;;;;1.27;0.65;;;23.40;49.70;;;;;;5112874;28;20027;-68
2022/09/10 10:43:28;;;;;;;1.42;0.68;;;23.40;49.80;;;;;;5112870;28;20031;-68
2022/09/10 10:46:19;;;;;;;2.63;0.60;;;23.40;50.10;;;;;;5112687;28;20028;-68
2022/09/10 10:49:24;;;;;;;1.73;0.70;;;23.30;50.00;;;;;;5112762;28;20080;-68
2022/09/10 10:52:14;;;;;;;1.52;0.60;;;23.20;49.80;;;;;;5112706;28;20016;-68
2022/09/10 10:54:42;;;;;;;1.85;0.70;;;23.10;50.30;;;;;;5112582;28;20027;-68
2022/09/10 10:57:50;;;;;;;1.13;0.73;;;23.10;50.10;;;;;;5112577;28;20032;-68
2022/09/10 11:00:18;;;;;;;1.35;0.60;;;23.10;50.50;;;;;;5115870;28;20068;-67
2022/09/10 11:03:17;;;;;;;2.03;0.68;;;23.20;50.90;;;;;;5116555;28;20027;-67
2022/09/10 11:05:56;;;;;;;2.40;0.43;;;23.30;51.70;;;;;;5116429;28;20027;-68
2022/09/10 11:08:49;;;;;;;1.67;0.80;;;23.50;49.80;;;;;;5116536;28;20072;-67
2022/09/10 11:11:23;;;;;;;2.25;0.52;;;23.70;50.20;;;;;;5116293;28;20022;-68
2022/09/10 11:14:12;;;;;;;;;;;23.80;48.80;;;;;;5116745;28;20016;-67
2022/09/10 11:16:44;;;;;;;1.52;0.60;;;23.90;50.30;;;;;;5077590;28;20367;-67
2022/09/10 11:19:35;;;;;;;1.50;0.50;;;24.00;48.30;;;;;;5097875;28;20081;-67
2022/09/10 11:22:17;;;;;;;0.30;0.25;;;24.10;48.80;;;;;;5097991;28;20031;-67
2022/09/10 11:24:50;;;;;;;1.25;0.30;;;24.20;48.90;;;;;;5116020;28;20039;-68
2022/09/10 11:27:28;;;;;;;1.08;0.40;;;24.30;49.10;;;;;;5116144;28;20059;-67
2022/09/10 11:29:57;;;;;;;0.30;0.30;;;24.40;47.30;;;;;;5116143;28;20077;-67
2022/09/10 11:32:53;;;;;;;2.50;0.60;;;24.50;46.60;;;;;;5115720;28;20048;-68
2022/09/10 11:35:30;;;;;;;1.05;0.35;;;24.50;46.60;;;;;;5115949;28;20103;-68
2022/09/10 11:38:03;;;;;;;9.15;0.50;;;24.40;46.00;;;;;;5115939;28;20031;-67
2022/09/10 11:40:45;;;;;;;1.47;0.60;;;24.20;46.00;;;;;;5097638;28;20389;-67
2022/09/10 11:43:36;;;;;;;1.20;0.30;;;24.00;46.40;;;;;;5115858;28;20501;-68
2022/09/10 11:46:06;;;;;;;0.75;0.30;;;23.90;47.10;;;;;;5115731;28;20024;-67
2022/09/10 11:48:39;;;;;;;4.32;0.47;;;23.80;47.80;;;;;;5115756;28;20015;-67
2022/09/10 11:51:18;;;;;;;2.75;0.40;;;23.70;47.90;;;;;;5115734;28;20016;-67
2022/09/10 11:53:44;;;;;;;0.82;0.30;;;23.50;47.90;;;;;;5115510;28;20019;-67
2022/09/10 11:56:16;;;;;;;0.82;0.50;;;23.40;48.30;;;;;;5115565;28;20028;-67
2022/09/10 11:59:18;;;;;;;0.43;0.30;;;23.30;48.80;;;;;;5115509;28;20554;-67
2022/09/10 12:02:17;;;;;;;0.93;0.40;;;23.20;49.00;;;;;;5097208;28;20161;-67
2022/09/10 12:04:51;;;;;;;1.27;0.45;;;23.10;49.40;;;;;;5115346;28;20028;-68
2022/09/10 12:07:47;;;;;;;0.60;0.50;;;23.10;49.40;;;;;;5115223;28;20028;-67
2022/09/10 12:10:38;;;;;;;0.93;0.40;;;23.00;49.80;;;;;;5115071;28;20020;-67
2022/09/10 12:13:11;;;;;;;0.80;0.40;;;23.00;49.60;;;;;;5115288;28;20068;-67
2022/09/10 12:15:37;;;;;;;0.82;0.40;;;23.00;49.60;;;;;;5115163;28;20073;-67
2022/09/10 12:18:15;;;;;;;1.90;0.57;;;23.00;49.60;;;;;;5115170;28;20073;-67
2022/09/10 12:20:48;;;;;;;1.60;0.30;;;23.10;49.90;;;;;;5115204;28;20103;-67
2022/09/10 12:23:35;;;;;;;1.48;0.50;;;23.10;49.60;;;;;;5114911;28;20031;-68
2022/09/10 12:26:19;;;;;;;0.30;0.30;;;23.10;49.00;;;;;;5114936;28;20054;-68
2022/09/10 12:28:48;;;;;;;3.60;0.68;;;23.20;49.00;;;;;;5114892;28;20022;-67
2022/09/10 12:31:21;;;;;;;0.50;0.40;;;23.30;48.90;;;;;;5114824;28;20016;-67
2022/09/10 12:33:46;;;;;;;1.27;0.50;;;23.40;49.00;;;;;;5114593;28;20044;-67
2022/09/10 12:36:23;;;;;;;1.42;0.68;;;23.50;48.80;;;;;;5123772;27;20033;-67
2022/09/10 12:38:54;;;;;;;0.85;0.40;;;23.50;48.30;;;;;;5135327;27;20505;-67
2022/09/10 12:41:20;;;;;;;0.98;0.50;;;23.60;48.40;;;;;;5135258;27;20034;-67
2022/09/10 12:43:46;;;;;;;4.72;0.50;;;23.70;48.00;;;;;;5135171;27;20098;-67
2022/09/10 12:46:11;;;;;;;1.00;0.40;;;23.90;47.80;;;;;;5135061;27;20019;-68
2022/09/10 12:48:50;;;;;;;2.38;0.65;;;24.00;48.10;;;;;;5116677;27;20107;-67
2022/09/10 12:51:16;;;;;;;0.80;0.50;;;24.00;47.30;;;;;;5135124;27;20011;-68
2022/09/10 12:54:04;;;;;;;0.75;0.40;;;24.10;47.60;;;;;;5127375;27;20020;-69
2022/09/10 12:56:38;;;;;;;1.48;0.63;;;24.00;47.70;;;;;;5114229;28;20031;-68
2022/09/10 12:59:17;;;;;;;1.73;0.35;;;24.00;47.70;;;;;;5096158;28;20030;-68
2022/09/10 13:01:46;;;;;;;1.13;0.45;;;24.00;47.50;;;;;;5114306;28;20031;-68
2022/09/10 13:04:33;;;;;;;0.30;0.30;;;23.90;47.70;;;;;;5095975;28;20034;-68